Historyczne dane pomiarowe

Dodano dane terminowe – wersja testowa.

Dane z okresu 1951-2019

Wersja bazy: 1.34 [2019-03-16, lista zmian], aktualizacja planowana na 2019-04-15

Dane meteo z obszaru Polski uzyskane na podstawie danych udostępnionych przez Instytut Meteorologii i Gospodarki Wodnej – Państwowy Instytut Badawczy.

 

Wybierz Datę:    

       

TemperaturaWilgotnośćWiatrCiśnienieOpadyŚniegCzas trwania zjawisk
 Stacja t tx tn tng RH VA  wxwx mslp ppp RRR   cm mm wxwxwxwxwxwxwx
1983-08-14 9.2 14.3 4.8 3.1 87.8- 4.3 1.3---- 0.0------------
1983-08-13 12.7 20.1 9.2 8.6 85.8- 7.7 5.0---- 4.9------------
1983-08-12 16.4 24.8 8.8 7.1 71.0- 4.7 1.3---- 3.3------------
1983-08-11 16.1 23.2 8.4 7.1 84.3- 3.0 0.7---- 0.0------------
1983-08-10 17.2 24.8 10.4 9.6 81.8- 4.0 1.3---- 0.0------------
1983-08-09 17.2 22.4 12.8 12.2 83.3- 5.3 1.3---- 0.0------------
1983-08-08 16.7 20.0 13.8 9.7 94.0- 5.7 0.7---- 1.9------------
1983-08-07 11.6 14.3 7.4 5.6 86.0- 8.0 0.0---- 1.2------------
1983-08-06 11.8 13.9 9.6 8.1 92.5- 8.0 0.0---- 0.0------------
1983-08-05 9.5 14.1 6.8 6.1 92.5- 8.0 1.3---- 1.7------------
1983-08-04 8.5 10.6 7.8 7.6 86.8- 8.0 4.0---- 9.5------------
1983-08-03 12.8 20.1 10.4 9.6 75.5- 8.0 2.7---- 12.9------------
1983-08-02 20.2 27.0 17.7 15.7 69.3- 6.7 1.7---- 2.2------------
1983-08-01 22.5 32.8 10.6 6.6 50.8- 0.7 2.3---- 0.0------------
1983-07-31 19.9 29.6 6.0 5.1 58.5- 1.0 1.7---- 0.0------------
1983-07-30 19.6 25.0 15.4 13.8 71.3- 4.7 3.7---- 0.0------------
1983-07-29 18.7 24.2 13.0 10.1 62.3- 6.3 0.7---- 0.9------------
1983-07-28 23.7 28.7 17.8 16.7 70.3- 5.7 0.3---- 0.0------------
1983-07-27 23.9 36.0 12.0 8.6 59.5- 1.7 0.7---- 0.0------------
1983-07-26 20.7 28.8 11.6 9.6 57.5- 0.0 0.7---- 0.0------------
1983-07-25 16.8 22.1 11.2 9.6 66.3- 2.0 1.0---- 0.0------------
1983-07-24 18.3 24.8 8.4 6.6 68.3- 3.7 0.7---- 0.4------------
1983-07-23 19.3 24.8 14.2 10.6 68.3- 3.3 3.0---- 0.0------------
1983-07-22 13.8 20.4 6.0 3.7 80.3- 5.7 2.0---- 0.0------------
1983-07-21 11.2 14.1 6.8 4.6 75.8- 4.3 2.3---- 0.0------------
1983-07-20 13.8 23.6 11.2 5.9 72.3- 8.0 2.3---- 4.0------------
1983-07-19 23.0 30.0 16.0 12.1 65.0- 4.0 2.7---- 6.0------------
1983-07-18 23.5 33.8 12.8 9.3 66.8- 1.7 0.7---- 1.0------------
1983-07-17 22.3 29.0 13.8 9.7 75.5- 1.7 1.3---- 0.0------------
1983-07-16 19.7 28.0 9.8 7.1 65.3- 3.0 1.3---- 0.0------------
1983-07-15 19.3 25.4 11.4 8.7 76.8- 3.3 1.3---- 0.0------------
1983-07-14 17.6 20.6 15.0 13.2 80.5- 7.3 1.7---- 0.0------------
1983-07-13 18.7 26.8 11.8 7.9 71.3- 4.3 2.7---- 15.5------------
1983-07-12 21.8 27.8 14.8 10.1 54.0- 6.0 3.3---- 0.0------------
1983-07-11 19.7 28.2 11.4 7.6 52.8- 5.3 2.0---- 0.0------------
1983-07-10 21.4 27.8 10.6 9.3 56.3- 3.0 1.3---- 0.0------------
1983-07-09 19.6 27.8 7.8 4.1 53.5- 0.3 0.7---- 0.0------------
1983-07-08 20.5 27.0 9.6 6.6 65.5- 0.0 1.3---- 0.0------------
1983-07-07 22.3 29.2 11.6 8.7 71.0- 0.0 1.3---- 0.0------------
1983-07-06 20.0 27.9 9.8 7.1 73.5- 1.3 1.0---- 0.0------------
1983-07-05 18.5 24.6 10.2 7.6 70.0- 5.0 2.0---- 0.0------------
1983-07-04 18.7 25.2 7.4 5.1 66.5- 1.7 0.7---- 0.0------------
1983-07-03 17.1 24.8 7.2 5.6 69.8- 1.7 0.0---- 0.0------------
1983-07-02 17.7 21.6 13.6 6.6 72.0- 5.3 1.0---- 0.0------------
1983-07-01 18.3 26.2 10.0 7.1 71.0- 4.3 1.3---- 0.0------------
1983-06-30 18.6 22.5 7.2 5.1 63.3- 2.3 0.7---- 0.0------------
1983-06-29 13.5 18.4 4.8 1.1 68.8- 4.7 1.3---- 0.0------------
1983-06-28 14.4 15.9 12.8 12.1 73.5- 7.0 1.7---- 0.0------------
1983-06-27 18.2 23.8 15.5 10.6 82.8- 6.0 2.0---- 5.0------------
1983-06-26 20.7 25.2 13.8 10.6 81.3- 7.0 1.3---- 3.5------------
1983-06-25 21.1 27.9 11.4 7.6 69.8- 4.3 2.7---- 0.0------------
1983-06-24 18.1 26.0 4.7 1.9 66.3- 0.0 1.0---- 0.0------------
1983-06-23 13.7 19.9 1.1 -1.3 72.3- 0.0 2.0---- 0.0------------
1983-06-22 13.6 21.3 10.0 6.1 84.0- 4.3 3.3---- 0.0------------
1983-06-21 20.7 23.0 10.2 8.1 73.5- 1.3 3.3---- 0.0------------
1983-06-20 15.2 18.0 11.8 10.1 86.0- 6.7 1.7---- 0.0------------
1983-06-19 11.4 13.1 9.6 6.1 84.8- 8.0 0.0---- 7.3------------
1983-06-18 8.5 12.0 2.7 0.6 89.3- 8.0 0.7---- 0.3------------
1983-06-17 8.7 10.0 6.8 5.3 82.5- 8.0 0.3---- 0.0------------
1983-06-16 8.3 11.1 5.8 3.6 81.0- 7.7 1.7---- 0.8------------
393.1 ms

 

Źródłem pochodzenia danych jest Instytut Meteorologii i Gospodarki Wodnej – Państwowy Instytut Badawczy. Dane Instytutu Meteorologii i Gospodarki Wodnej – Państwowego Instytutu Badawczego zostały przetworzone.

Dane źródłowe można odnaleźć na stronie https://dane.imgw.pl